Time;durP1;ratioP1;P1;durP2;ratioP2;P2;SDS_P1;SDS_P2;PMS_P1;PMS_P2;Temp;Humidity;BMP_temperature;BMP_pressure;BME280_temperature;BME280_humidity;BME280_pressure;Samples;Min_cycle;Max_cycle;Signal;HPM_P1;HPM_P2
2022/03/31 19:10:24;;;;;;;3.13;2.67;;;;;;;18.66;38.44;98563.66;10292982;27;43485;-73
2022/03/31 19:15:16;;;;;;;2.60;2.40;;;;;;;18.86;37.96;98569.00;10282746;27;66157;-72
2022/03/31 19:20:09;;;;;;;4.30;2.60;;;;;;;18.93;37.79;98571.97;10281476;27;66456;-72
2022/03/31 19:25:01;;;;;;;2.47;2.28;;;;;;;18.99;37.63;98567.03;10279098;27;66390;-70
2022/03/31 19:29:55;;;;;;;3.08;2.55;;;;;;;19.01;37.59;98556.50;10282047;27;66420;-71
2022/03/31 19:34:47;;;;;;;3.30;2.42;;;;;;;19.02;37.38;98574.59;10263526;27;65510;-71
2022/03/31 19:39:39;;;;;;;2.67;2.30;;;;;;;19.07;37.37;98571.59;10280160;27;66231;-72
2022/03/31 19:44:31;;;;;;;2.35;2.15;;;;;;;19.06;37.15;98591.97;10281528;27;66491;-72
2022/03/31 19:49:27;;;;;;;4.18;2.90;;;;;;;19.08;37.19;98592.41;10281987;27;65901;-69
2022/03/31 19:54:21;;;;;;;2.60;2.40;;;;;;;19.16;37.04;98588.75;10281347;27;66294;-70
2022/03/31 19:59:13;;;;;;;3.25;2.58;;;;;;;19.18;36.88;98591.16;10281854;27;65572;-72
2022/03/31 20:04:05;;;;;;;2.53;2.33;;;;;;;19.22;36.73;98595.59;10272472;27;66378;-73
2022/03/31 20:08:58;;;;;;;3.88;2.42;;;;;;;19.26;36.67;98590.22;10278852;27;65715;-72
2022/03/31 20:13:50;;;;;;;8.70;2.50;;;;;;;19.24;36.54;98589.75;10271942;27;66368;-73
2022/03/31 20:18:43;;;;;;;4.35;2.25;;;;;;;19.17;36.50;98590.34;10269205;27;65618;-72
2022/03/31 20:23:35;;;;;;;2.90;2.58;;;;;;;19.21;36.48;98590.44;10249691;27;66392;-64
2022/03/31 20:28:29;;;;;;;2.45;2.25;;;;;;;19.22;36.38;98581.03;10254020;27;65576;-64
2022/03/31 20:33:21;;;;;;;3.67;2.72;;;;;;;19.22;36.30;98587.34;10246330;27;65373;-65
2022/03/31 20:38:13;;;;;;;2.92;2.72;;;;;;;19.20;36.39;98595.13;10252353;27;66237;-63
2022/03/31 20:43:08;;;;;;;2.58;2.38;;;;;;;19.23;36.40;98593.63;10251172;27;66417;-73
2022/03/31 20:48:03;;;;;;;4.30;2.55;;;;;;;19.27;36.21;98584.34;10250969;27;66181;-76
2022/03/31 20:52:56;;;;;;;4.35;2.70;;;;;;;19.23;36.31;98586.19;10250077;27;65011;-64
2022/03/31 20:57:48;;;;;;;10.45;3.00;;;;;;;19.31;36.17;98587.22;10252471;27;66381;-64
2022/03/31 21:02:41;;;;;;;5.03;2.88;;;;;;;19.23;36.07;98594.44;10245921;27;66419;-64
2022/03/31 21:07:35;;;;;;;4.25;2.88;;;;;;;19.19;36.16;98585.28;10251020;27;66211;-64
2022/03/31 21:12:27;;;;;;;3.92;2.58;;;;;;;19.18;36.17;98575.47;10249921;27;66385;-64
2022/03/31 21:17:19;;;;;;;8.18;3.05;;;;;;;19.21;36.23;98579.44;10250831;27;65600;-74
2022/03/31 21:22:11;;;;;;;4.40;2.55;;;;;;;19.25;36.15;98586.66;10245068;27;65604;-74
2022/03/31 21:27:05;;;;;;;5.28;2.33;;;;;;;19.27;36.37;98584.34;10251672;27;65631;-76
2022/03/31 21:31:57;;;;;;;7.15;2.83;;;;;;;19.34;36.16;98584.53;10250225;27;66382;-64
2022/03/31 21:36:49;;;;;;;2.50;2.30;;;;;;;19.29;36.27;98587.53;10250256;27;64472;-75
2022/03/31 21:41:41;;;;;;;3.00;2.22;;;;;;;19.34;36.11;98587.28;10249916;27;66261;-76
2022/03/31 21:46:35;;;;;;;3.53;2.10;;;;;;;19.34;36.07;98598.28;10250691;27;65236;-77
2022/03/31 21:51:28;;;;;;;4.28;2.28;;;;;;;19.34;36.10;98594.75;10240576;27;65784;-76
2022/03/31 21:56:20;;;;;;;3.92;2.20;;;;;;;19.33;36.11;98596.72;10247184;27;66191;-73
2022/03/31 22:01:24;;;;;;;5.13;2.30;;;;;;;19.38;35.92;98601.94;10249176;27;66064;-73
2022/03/31 22:06:18;;;;;;;2.70;2.20;;;;;;;19.41;36.01;98602.41;10235794;27;66341;-72
2022/03/31 22:16:19;;;;;;;2.38;2.17;;;;;;;19.38;35.82;98606.66;10249292;27;67247;-73
2022/03/31 22:21:11;;;;;;;2.80;2.42;;;;;;;19.41;35.88;98605.16;10248037;27;66167;-74
2022/03/31 22:26:05;;;;;;;2.15;1.95;;;;;;;19.44;35.83;98601.69;10248951;27;65677;-73
2022/03/31 22:30:57;;;;;;;2.40;2.20;;;;;;;19.41;35.74;98603.22;10249873;27;66262;-76
2022/03/31 22:35:49;;;;;;;3.25;2.10;;;;;;;19.43;35.85;98598.16;10248454;27;66068;-64
2022/03/31 22:40:41;;;;;;;2.13;1.90;;;;;;;19.43;35.74;98600.88;10247909;27;66026;-76
2022/03/31 22:45:35;;;;;;;2.17;1.98;;;;;;;19.47;35.56;98603.78;10248578;27;65622;-73
2022/03/31 22:50:30;;;;;;;4.45;2.05;;;;;;;19.43;35.61;98606.38;10249673;27;66430;-73
2022/03/31 22:55:22;;;;;;;2.83;2.47;;;;;;;19.46;35.65;98607.66;10249537;27;66440;-74
2022/03/31 23:00:15;;;;;;;2.22;2.03;;;;;;;19.47;35.69;98615.59;10248514;27;65893;-73
2022/03/31 23:05:11;;;;;;;2.20;2.00;;;;;;;19.46;35.65;98618.66;10248319;27;66432;-76
2022/03/31 23:10:03;;;;;;;2.00;1.90;;;;;;;19.48;35.64;98608.13;10221774;27;65500;-74
2022/03/31 23:14:55;;;;;;;2.30;2.10;;;;;;;19.50;35.58;98619.56;10244316;27;65715;-72
2022/03/31 23:19:47;;;;;;;2.00;1.90;;;;;;;19.51;35.64;98604.69;10249084;27;65413;-72
2022/03/31 23:24:48;;;;;;;3.58;2.10;;;;;;;19.49;35.43;98596.00;10247504;27;65651;-72
2022/03/31 23:29:41;;;;;;;2.10;1.90;;;;;;;19.45;35.81;98601.34;10247416;27;66403;-76
2022/03/31 23:34:33;;;;;;;2.15;1.95;;;;;;;19.47;35.59;98593.59;10247721;27;65563;-69
2022/03/31 23:39:25;;;;;;;2.65;1.95;;;;;;;19.46;35.48;98602.94;10247150;27;65637;-70
2022/03/31 23:44:18;;;;;;;1.77;1.67;;;;;;;19.47;35.52;98604.59;10248394;27;65878;-69
2022/03/31 23:49:10;;;;;;;2.47;2.28;;;;;;;19.47;35.47;98604.59;10245307;27;66397;-67
2022/03/31 23:54:02;;;;;;;2.25;1.90;;;;;;;19.49;35.54;98618.75;10249706;27;66364;-74
2022/03/31 23:58:54;;;;;;;1.98;1.85;;;;;;;19.48;35.50;98621.88;10257431;27;65566;-73
